createdAt,value
2023-05-19T00:01:20.486Z,83.28
2023-05-19T00:03:57.564Z,82.32
2023-05-19T00:06:27.898Z,82.65
2023-05-19T00:08:58.815Z,83.00
2023-05-19T00:11:31.420Z,82.27
2023-05-19T00:14:00.561Z,83.71
2023-05-19T00:16:29.362Z,83.78
2023-05-19T00:19:00.209Z,83.78
2023-05-19T00:21:29.304Z,83.62
2023-05-19T00:23:57.613Z,83.45
2023-05-19T00:26:27.097Z,83.58
2023-05-19T00:28:54.677Z,83.31
2023-05-19T00:31:22.193Z,82.86
2023-05-19T00:33:49.731Z,83.24
2023-05-19T00:36:17.343Z,82.74
2023-05-19T00:38:44.942Z,82.86
2023-05-19T00:41:12.792Z,83.06
2023-05-19T00:43:40.582Z,82.72
2023-05-19T00:46:08.225Z,83.04
2023-05-19T00:48:36.058Z,83.56
2023-05-19T00:51:06.569Z,83.43
2023-05-19T00:53:35.537Z,83.04
2023-05-19T00:56:03.511Z,82.83
2023-05-19T00:58:32.763Z,83.41
2023-05-19T01:01:04.804Z,83.13
2023-05-19T01:03:37.625Z,83.37
2023-05-19T01:06:05.674Z,82.82
2023-05-19T01:08:34.527Z,82.19
2023-05-19T01:11:02.370Z,82.30
2023-05-19T01:13:30.619Z,82.20
2023-05-19T01:16:03.833Z,82.13
2023-05-19T01:18:56.406Z,82.32
2023-05-19T01:22:23.720Z,82.49
2023-05-19T01:25:00.162Z,82.62
2023-05-19T01:27:47.175Z,82.51
2023-05-19T01:30:30.258Z,82.30
2023-05-19T01:33:04.688Z,81.80
2023-05-19T01:35:33.466Z,81.58
2023-05-19T01:38:02.750Z,81.74
2023-05-19T01:40:31.160Z,81.71
2023-05-19T01:43:01.153Z,81.73
2023-05-19T01:45:30.448Z,81.84
2023-05-19T01:48:01.397Z,81.11
2023-05-19T01:50:29.760Z,81.34
2023-05-19T01:52:57.684Z,81.17
2023-05-19T01:55:25.781Z,81.63
2023-05-19T01:58:30.999Z,81.75
2023-05-19T02:01:22.117Z,81.30
2023-05-19T02:04:07.753Z,81.74
2023-05-19T02:06:47.287Z,82.13
2023-05-19T02:09:33.566Z,81.35
2023-05-19T02:12:10.979Z,81.34
2023-05-19T02:14:45.571Z,82.47
2023-05-19T02:17:16.014Z,81.79
2023-05-19T02:19:44.617Z,81.75
2023-05-19T02:22:12.478Z,82.27
2023-05-19T02:24:41.466Z,81.52
2023-05-19T02:27:08.835Z,82.95
2023-05-19T02:29:36.513Z,82.98
2023-05-19T02:32:04.663Z,82.21
2023-05-19T02:34:32.377Z,83.09
2023-05-19T02:36:59.935Z,83.57
2023-05-19T02:39:29.303Z,82.99
2023-05-19T02:41:56.782Z,83.32
2023-05-19T02:44:25.023Z,83.45
2023-05-19T02:46:52.493Z,83.21
2023-05-19T02:49:19.949Z,82.76
2023-05-19T02:51:47.450Z,83.10
2023-05-19T02:54:14.997Z,83.45
2023-05-19T02:56:42.493Z,83.08
2023-05-19T02:59:10.442Z,82.96
2023-05-19T03:01:38.535Z,83.00
2023-05-19T03:04:06.341Z,82.17
2023-05-19T03:06:34.371Z,81.89
2023-05-19T03:09:02.294Z,81.70
2023-05-19T03:11:30.973Z,81.29
2023-05-19T03:13:58.853Z,81.36
2023-05-19T03:16:28.227Z,80.65
2023-05-19T03:18:56.347Z,79.96
2023-05-19T03:21:24.017Z,79.31
2023-05-19T03:23:52.128Z,78.25
2023-05-19T03:26:19.870Z,78.34
2023-05-19T03:28:47.608Z,77.27
2023-05-19T03:31:15.138Z,76.39
2023-05-19T03:33:42.992Z,75.93
2023-05-19T03:36:12.720Z,75.73
2023-05-19T03:38:40.531Z,75.68
2023-05-19T03:41:08.225Z,75.20
2023-05-19T03:43:35.932Z,74.83
2023-05-19T03:46:03.775Z,74.23
2023-05-19T03:48:31.558Z,74.21
2023-05-19T03:50:59.274Z,73.53
2023-05-19T03:53:26.987Z,72.45
2023-05-19T03:55:56.736Z,72.51
2023-05-19T03:58:24.477Z,72.11
2023-05-19T04:00:52.370Z,70.80
2023-05-19T04:03:20.014Z,70.21
2023-05-19T04:05:47.922Z,70.08
2023-05-19T04:08:15.817Z,69.33
2023-05-19T04:10:43.435Z,69.33
2023-05-19T04:13:11.603Z,68.52
2023-05-19T04:15:39.195Z,67.96
2023-05-19T04:18:07.037Z,68.15
2023-05-19T04:20:34.919Z,67.70
2023-05-19T04:23:02.508Z,67.84
2023-05-19T04:25:30.040Z,67.61
2023-05-19T04:27:58.021Z,67.38
2023-05-19T04:30:25.784Z,66.27
2023-05-19T04:32:53.510Z,65.45
2023-05-19T04:35:21.366Z,65.39
2023-05-19T04:37:49.164Z,64.64
2023-05-19T04:40:17.454Z,63.85
2023-05-19T04:42:46.161Z,63.13
2023-05-19T04:45:14.276Z,62.18
2023-05-19T04:47:42.515Z,60.68
2023-05-19T04:50:11.387Z,60.26
2023-05-19T04:52:38.840Z,60.06
2023-05-19T04:55:06.721Z,59.26
2023-05-19T04:57:34.558Z,59.27
2023-05-19T05:00:02.063Z,59.45
2023-05-19T05:02:29.566Z,59.57
2023-05-19T05:04:58.119Z,58.03
2023-05-19T05:07:25.914Z,58.13
2023-05-19T05:09:53.386Z,56.96
2023-05-19T05:12:21.875Z,56.85
2023-05-19T05:14:49.970Z,57.05
2023-05-19T05:17:18.014Z,56.11
2023-05-19T05:19:46.039Z,56.32
2023-05-19T05:22:13.924Z,56.95
2023-05-19T05:24:41.986Z,56.38
2023-05-19T05:27:10.441Z,56.22
2023-05-19T05:29:38.042Z,57.09
2023-05-19T05:32:05.983Z,58.06
2023-05-19T05:34:34.012Z,53.57
2023-05-19T05:37:01.766Z,54.60
2023-05-19T05:39:29.620Z,54.91
2023-05-19T05:41:57.397Z,53.55
2023-05-19T05:44:24.892Z,52.08
2023-05-19T05:46:52.908Z,51.36
2023-05-19T05:49:21.076Z,48.48
2023-05-19T05:52:04.416Z,47.83
2023-05-19T05:54:34.117Z,45.47
2023-05-19T05:57:02.616Z,39.89
2023-05-19T05:59:30.151Z,30.66
2023-05-19T06:01:57.697Z,26.68
2023-05-19T06:04:25.833Z,23.84
2023-05-19T06:06:53.862Z,21.50
2023-05-19T06:09:21.463Z,22.18
2023-05-19T06:11:49.040Z,21.69
2023-05-19T06:14:16.864Z,20.98
2023-05-19T06:16:44.530Z,20.40
2023-05-19T06:19:12.328Z,20.64
2023-05-19T06:21:39.891Z,24.62
2023-05-19T06:24:07.710Z,28.18
2023-05-19T06:26:35.101Z,29.59
2023-05-19T06:29:02.891Z,30.40
2023-05-19T06:31:31.429Z,29.71
2023-05-19T06:33:59.308Z,25.02
2023-05-19T06:36:27.103Z,20.19
2023-05-19T06:38:54.868Z,17.91
2023-05-19T06:41:22.481Z,17.34
2023-05-19T06:43:49.979Z,18.15
2023-05-19T06:46:17.979Z,21.32
2023-05-19T06:48:45.539Z,23.08
2023-05-19T06:51:13.349Z,22.71
2023-05-19T06:53:41.091Z,18.50
2023-05-19T06:56:08.688Z,16.43
2023-05-19T06:58:36.468Z,14.86
2023-05-19T07:01:04.212Z,14.54
2023-05-19T07:03:31.796Z,13.69
2023-05-19T07:05:59.799Z,13.93
2023-05-19T07:08:27.904Z,13.86
2023-05-19T07:10:56.170Z,13.96
2023-05-19T07:13:25.379Z,13.53
2023-05-19T07:15:58.132Z,14.00
2023-05-19T07:18:25.792Z,13.94
2023-05-19T07:20:53.972Z,14.46
2023-05-19T07:23:21.715Z,14.16
2023-05-19T07:25:49.642Z,13.62
2023-05-19T07:28:17.363Z,13.51
2023-05-19T07:30:45.166Z,14.01
2023-05-19T07:33:13.101Z,13.34
2023-05-19T07:35:40.840Z,13.60
2023-05-19T07:38:08.685Z,13.58
2023-05-19T07:40:36.483Z,13.01
2023-05-19T07:43:04.257Z,13.92
2023-05-19T07:45:32.204Z,14.07
2023-05-19T07:47:59.963Z,14.46
2023-05-19T07:50:27.757Z,13.91
2023-05-19T07:52:55.926Z,13.83
2023-05-19T07:55:23.409Z,15.02
2023-05-19T07:57:51.058Z,14.98
2023-05-19T08:00:19.966Z,14.03
2023-05-19T08:02:47.524Z,15.21
2023-05-19T08:05:15.404Z,17.82
2023-05-19T08:07:43.132Z,24.39
2023-05-19T08:10:10.894Z,25.61
2023-05-19T08:12:38.396Z,27.82
2023-05-19T08:15:06.513Z,28.95
2023-05-19T08:17:34.006Z,30.15
2023-05-19T08:20:01.505Z,30.68
2023-05-19T08:22:29.098Z,31.48
2023-05-19T08:24:57.025Z,33.28
2023-05-19T08:27:24.919Z,32.86
2023-05-19T08:29:52.688Z,33.48
2023-05-19T08:32:20.785Z,33.98
2023-05-19T08:34:48.269Z,35.27
2023-05-19T08:37:16.259Z,33.90
2023-05-19T08:39:44.098Z,35.02
2023-05-19T08:42:12.521Z,34.24
2023-05-19T08:44:41.332Z,34.49
2023-05-19T08:47:13.822Z,34.11
2023-05-19T08:49:46.363Z,34.23
2023-05-19T08:52:32.097Z,34.57
2023-05-19T08:55:13.168Z,36.01
2023-05-19T08:57:41.637Z,37.92
2023-05-19T09:00:12.244Z,38.19
2023-05-19T09:02:50.546Z,38.05
2023-05-19T09:05:28.379Z,38.37
2023-05-19T09:07:57.176Z,37.22
2023-05-19T09:10:25.293Z,38.41
2023-05-19T09:12:53.672Z,38.34
2023-05-19T09:15:25.943Z,38.18
2023-05-19T09:18:13.703Z,39.56
2023-05-19T09:20:43.462Z,38.33
2023-05-19T09:23:17.514Z,37.84
2023-05-19T09:25:49.564Z,38.74
2023-05-19T09:28:24.510Z,36.45
2023-05-19T09:31:09.255Z,37.11
2023-05-19T09:33:46.183Z,37.17
2023-05-19T09:36:14.217Z,37.36
2023-05-19T09:38:41.881Z,35.93
2023-05-19T09:41:09.876Z,35.57
2023-05-19T09:43:37.495Z,35.11
2023-05-19T09:46:06.779Z,35.59
2023-05-19T09:48:37.521Z,35.01
2023-05-19T09:51:08.155Z,34.15
2023-05-19T09:53:36.479Z,34.52
2023-05-19T09:56:04.204Z,33.54
2023-05-19T09:58:35.300Z,33.09
2023-05-19T10:01:07.061Z,33.07
2023-05-19T10:03:35.142Z,33.61
2023-05-19T10:06:04.671Z,34.67
2023-05-19T10:08:33.857Z,35.28
2023-05-19T10:11:02.504Z,34.03
2023-05-19T10:13:32.135Z,34.84
2023-05-19T10:16:00.772Z,35.10
2023-05-19T10:18:29.793Z,35.36
2023-05-19T10:20:58.739Z,36.13
2023-05-19T10:23:27.055Z,37.02
2023-05-19T10:25:59.302Z,37.43
2023-05-19T10:28:39.197Z,37.61
2023-05-19T10:31:09.829Z,36.99
2023-05-19T10:33:58.763Z,35.80
2023-05-19T10:36:28.969Z,35.86
2023-05-19T10:39:06.664Z,35.84
2023-05-19T10:41:51.096Z,35.96
2023-05-19T10:44:40.166Z,36.20
2023-05-19T10:47:08.714Z,36.41
2023-05-19T10:49:36.888Z,35.26
2023-05-19T10:52:18.838Z,35.95
2023-05-19T10:54:46.373Z,35.60
2023-05-19T10:57:17.517Z,36.06
2023-05-19T10:59:45.775Z,35.99
2023-05-19T11:02:38.845Z,33.85
2023-05-19T11:05:18.515Z,35.11
2023-05-19T11:07:56.446Z,34.49
2023-05-19T11:10:24.757Z,35.61
2023-05-19T11:12:52.546Z,36.11
2023-05-19T11:15:26.328Z,35.82
2023-05-19T11:17:54.618Z,34.86
2023-05-19T11:20:29.318Z,34.61
2023-05-19T11:23:06.926Z,34.73
2023-05-19T11:25:51.392Z,35.58
2023-05-19T11:28:25.854Z,34.85
2023-05-19T11:30:57.556Z,33.30
2023-05-19T11:33:29.299Z,32.81
2023-05-19T11:36:00.507Z,34.14
2023-05-19T11:38:30.168Z,33.96
2023-05-19T11:40:58.358Z,33.86
2023-05-19T11:43:26.447Z,34.52
2023-05-19T11:45:55.976Z,34.51
2023-05-19T11:48:24.965Z,34.29
2023-05-19T11:50:52.890Z,33.43
2023-05-19T11:53:21.091Z,33.18
2023-05-19T11:55:49.656Z,32.24
2023-05-19T11:58:17.726Z,31.89
2023-05-19T12:00:48.344Z,31.38
2023-05-19T12:03:17.540Z,31.55
2023-05-19T12:05:48.386Z,32.07
2023-05-19T12:08:19.909Z,31.81
2023-05-19T12:10:51.028Z,31.91
2023-05-19T12:13:19.581Z,33.48
2023-05-19T12:15:47.441Z,33.18
2023-05-19T12:18:15.259Z,33.08
2023-05-19T12:20:43.374Z,33.59
2023-05-19T12:23:12.422Z,33.92
2023-05-19T12:25:40.444Z,34.04
2023-05-19T12:28:08.407Z,34.28
2023-05-19T12:30:36.166Z,34.94
2023-05-19T12:33:04.508Z,34.72
2023-05-19T12:35:36.280Z,34.19
2023-05-19T12:38:06.279Z,33.12
2023-05-19T12:40:35.692Z,32.75
2023-05-19T12:43:04.382Z,33.42
2023-05-19T12:45:40.118Z,33.71
2023-05-19T12:48:16.727Z,32.95
2023-05-19T12:50:45.334Z,32.56
2023-05-19T12:53:14.208Z,32.22
2023-05-19T12:55:45.646Z,32.37
2023-05-19T12:58:15.888Z,32.23
2023-05-19T13:00:48.481Z,32.39
2023-05-19T13:03:18.985Z,32.15
2023-05-19T13:05:49.052Z,31.92
2023-05-19T13:08:22.071Z,31.81
2023-05-19T13:10:50.416Z,31.21
2023-05-19T13:13:18.280Z,31.44
2023-05-19T13:15:48.942Z,31.97
2023-05-19T13:18:17.334Z,31.41
2023-05-19T13:20:46.523Z,31.99
2023-05-19T13:23:14.413Z,32.56
2023-05-19T13:25:42.708Z,32.11
2023-05-19T13:28:11.206Z,32.75
2023-05-19T13:30:40.581Z,31.90
2023-05-19T13:33:08.253Z,32.83
2023-05-19T13:35:39.070Z,32.29
2023-05-19T13:38:09.813Z,32.42
2023-05-19T13:40:39.708Z,32.59
2023-05-19T13:43:08.719Z,32.02
2023-05-19T13:45:36.999Z,32.77
2023-05-19T13:48:07.358Z,32.42
2023-05-19T13:50:35.348Z,33.10
2023-05-19T13:53:03.824Z,32.71
2023-05-19T13:55:32.819Z,32.50
2023-05-19T13:58:00.328Z,33.46
2023-05-19T14:00:27.873Z,32.90
2023-05-19T14:02:56.008Z,33.32
2023-05-19T14:05:23.840Z,34.05
2023-05-19T14:07:51.715Z,33.41
2023-05-19T14:10:19.573Z,33.97
2023-05-19T14:13:14.013Z,34.69
2023-05-19T14:15:37.925Z,34.05
2023-05-19T14:18:07.099Z,33.88
2023-05-19T14:20:35.226Z,33.45
2023-05-19T14:23:03.349Z,34.09
2023-05-19T14:25:30.951Z,34.00
2023-05-19T14:27:58.465Z,34.85
2023-05-19T14:30:25.993Z,33.91
2023-05-19T14:32:53.509Z,34.30
2023-05-19T14:35:21.324Z,35.03
2023-05-19T14:37:49.008Z,35.58
2023-05-19T14:40:16.680Z,36.02
2023-05-19T14:42:44.486Z,35.81
2023-05-19T14:45:12.428Z,36.44
2023-05-19T14:47:39.920Z,35.49
2023-05-19T14:50:07.620Z,37.02
2023-05-19T14:52:35.308Z,34.76
2023-05-19T14:55:03.376Z,36.77
2023-05-19T14:57:31.155Z,36.32
2023-05-19T14:59:58.598Z,35.99
2023-05-19T15:02:27.525Z,35.67
2023-05-19T15:04:56.418Z,38.04
2023-05-19T15:07:24.690Z,36.82
2023-05-19T15:09:52.297Z,35.86
2023-05-19T15:12:20.006Z,36.30
2023-05-19T15:14:47.464Z,36.41
2023-05-19T15:17:15.030Z,39.21
2023-05-19T15:19:43.134Z,35.77
2023-05-19T15:22:10.888Z,37.51
2023-05-19T15:24:38.421Z,37.39
2023-05-19T15:27:06.043Z,38.81
2023-05-19T15:29:33.603Z,36.67
2023-05-19T15:32:02.036Z,37.04
2023-05-19T15:34:29.542Z,37.38
2023-05-19T15:36:57.156Z,38.56
2023-05-19T15:39:24.814Z,39.95
2023-05-19T15:41:52.569Z,40.42
2023-05-19T15:44:20.113Z,39.26
2023-05-19T15:46:47.911Z,39.17
2023-05-19T15:49:15.725Z,38.65
2023-05-19T15:51:43.933Z,38.94
2023-05-19T15:54:11.522Z,38.78
2023-05-19T15:56:39.055Z,38.33
2023-05-19T15:59:06.866Z,38.55
2023-05-19T16:01:34.702Z,38.67
2023-05-19T16:04:04.000Z,39.28
2023-05-19T16:06:32.029Z,38.69
2023-05-19T16:08:59.924Z,38.65
2023-05-19T16:11:27.789Z,38.87
2023-05-19T16:13:55.611Z,39.76
2023-05-19T16:16:23.255Z,39.67
2023-05-19T16:18:51.242Z,40.03
2023-05-19T16:21:19.019Z,39.77
2023-05-19T16:23:46.615Z,40.30
2023-05-19T16:26:14.333Z,41.54
2023-05-19T16:28:41.941Z,40.95
2023-05-19T16:31:09.589Z,41.41
2023-05-19T16:33:37.388Z,41.28
2023-05-19T16:36:06.480Z,41.58
2023-05-19T16:38:34.184Z,41.74
2023-05-19T16:41:01.719Z,44.20
2023-05-19T16:43:29.197Z,41.99
2023-05-19T16:45:57.150Z,41.98
2023-05-19T16:48:24.988Z,42.05
2023-05-19T16:50:52.766Z,43.68
2023-05-19T16:53:20.263Z,42.78
2023-05-19T16:55:47.773Z,43.12
2023-05-19T16:58:15.382Z,42.12
2023-05-19T17:00:43.477Z,42.74
2023-05-19T17:03:11.670Z,42.10
2023-05-19T17:05:41.980Z,42.76
2023-05-19T17:08:09.998Z,43.37
2023-05-19T17:10:39.271Z,43.40
2023-05-19T17:13:07.407Z,43.19
2023-05-19T17:15:35.197Z,43.24
2023-05-19T17:18:02.961Z,43.37
2023-05-19T17:20:30.505Z,44.20
2023-05-19T17:22:58.347Z,44.01
2023-05-19T17:25:26.196Z,45.27
2023-05-19T17:27:55.191Z,45.04
2023-05-19T17:30:22.726Z,45.15
2023-05-19T17:32:51.093Z,44.80
2023-05-19T17:35:18.962Z,45.17
2023-05-19T17:37:46.684Z,46.16
2023-05-19T17:40:14.392Z,45.30
2023-05-19T17:42:41.884Z,46.05
2023-05-19T17:45:12.144Z,45.49
2023-05-19T17:47:39.747Z,45.87
2023-05-19T17:50:07.894Z,45.68
2023-05-19T17:52:36.279Z,45.38
2023-05-19T17:55:04.596Z,46.75
2023-05-19T17:57:34.104Z,45.30
2023-05-19T18:00:03.065Z,44.54
2023-05-19T18:02:30.929Z,45.00
2023-05-19T18:04:58.979Z,43.66
2023-05-19T18:07:27.903Z,44.30
2023-05-19T18:09:56.324Z,43.85
2023-05-19T18:12:24.080Z,44.32
2023-05-19T18:14:51.823Z,45.30
2023-05-19T18:17:20.080Z,46.03
2023-05-19T18:19:49.398Z,45.92
2023-05-19T18:22:17.749Z,44.83
2023-05-19T18:24:45.405Z,45.73
2023-05-19T18:27:12.922Z,45.86
2023-05-19T18:29:40.488Z,45.30
2023-05-19T18:32:08.395Z,45.60
2023-05-19T18:34:36.292Z,45.71
2023-05-19T18:37:04.314Z,46.19
2023-05-19T18:39:31.861Z,45.68
2023-05-19T18:41:59.658Z,46.25
2023-05-19T18:44:27.445Z,46.52
2023-05-19T18:46:55.251Z,46.38
2023-05-19T18:49:25.117Z,46.37
2023-05-19T18:51:53.070Z,46.57
2023-05-19T18:54:21.771Z,46.82
2023-05-19T18:56:49.281Z,47.31
2023-05-19T18:59:16.731Z,47.00
2023-05-19T19:01:45.267Z,46.55
2023-05-19T19:04:14.916Z,47.10
2023-05-19T19:06:43.879Z,46.78
2023-05-19T19:09:11.592Z,46.69
2023-05-19T19:11:39.208Z,46.92
2023-05-19T19:14:07.600Z,46.42
2023-05-19T19:16:35.524Z,47.26
2023-05-19T19:19:03.685Z,47.03
2023-05-19T19:21:31.677Z,46.86
2023-05-19T19:23:59.344Z,46.89
2023-05-19T19:26:29.446Z,46.88
2023-05-19T19:28:56.960Z,47.04
2023-05-19T19:31:31.025Z,47.33
2023-05-19T19:34:03.082Z,47.37
2023-05-19T19:36:31.917Z,48.27
2023-05-19T19:38:59.832Z,47.99
2023-05-19T19:41:29.740Z,48.05
2023-05-19T19:43:57.711Z,48.49
2023-05-19T19:46:25.362Z,48.30
2023-05-19T19:48:52.873Z,48.88
2023-05-19T19:51:20.632Z,49.00
2023-05-19T19:53:48.178Z,49.29
2023-05-19T19:56:16.199Z,49.44
2023-05-19T19:58:43.959Z,49.17
2023-05-19T20:01:11.807Z,49.35
2023-05-19T20:03:39.591Z,49.66
2023-05-19T20:06:07.797Z,49.59
2023-05-19T20:08:35.880Z,49.75
2023-05-19T20:11:03.520Z,49.79
2023-05-19T20:13:32.809Z,49.42
2023-05-19T20:16:01.184Z,50.29
2023-05-19T20:18:29.969Z,50.15
2023-05-19T20:20:57.752Z,50.03
2023-05-19T20:23:25.614Z,50.38
2023-05-19T20:26:10.921Z,50.69
2023-05-19T20:28:40.339Z,50.67
2023-05-19T20:31:08.185Z,50.08
2023-05-19T20:33:36.018Z,50.04
2023-05-19T20:36:05.637Z,50.79
2023-05-19T20:38:33.406Z,50.77
2023-05-19T20:41:02.019Z,50.63
2023-05-19T20:43:29.794Z,50.82
2023-05-19T20:45:57.295Z,51.21
2023-05-19T20:48:24.999Z,51.67
2023-05-19T20:50:54.269Z,51.67
2023-05-19T20:53:21.820Z,51.75
2023-05-19T20:55:49.269Z,51.47
2023-05-19T20:58:16.759Z,51.60
2023-05-19T21:00:44.683Z,50.78
2023-05-19T21:03:12.505Z,50.35
2023-05-19T21:05:40.535Z,50.38
2023-05-19T21:08:12.859Z,51.23
2023-05-19T21:10:41.102Z,51.90
2023-05-19T21:13:08.943Z,51.96
2023-05-19T21:15:36.748Z,52.12
2023-05-19T21:18:04.524Z,51.98
2023-05-19T21:20:32.572Z,52.46
2023-05-19T21:23:00.661Z,52.70
2023-05-19T21:25:28.290Z,52.64
2023-05-19T21:27:58.320Z,52.09
2023-05-19T21:30:26.005Z,53.13
2023-05-19T21:32:53.663Z,52.88
2023-05-19T21:35:21.593Z,52.50
2023-05-19T21:37:49.376Z,52.92
2023-05-19T21:40:17.120Z,52.97
2023-05-19T21:42:44.811Z,53.49
2023-05-19T21:45:12.594Z,54.16
2023-05-19T21:47:40.457Z,53.89
2023-05-19T21:50:08.623Z,54.67
2023-05-19T21:52:36.660Z,54.72
2023-05-19T21:55:04.397Z,54.85
2023-05-19T21:57:31.924Z,54.85
2023-05-19T21:59:59.438Z,55.99
2023-05-19T22:02:26.898Z,56.51
2023-05-19T22:04:54.404Z,56.47
2023-05-19T22:07:26.890Z,57.45
2023-05-19T22:09:54.869Z,57.63
2023-05-19T22:12:23.490Z,57.41
2023-05-19T22:14:51.373Z,57.17
2023-05-19T22:17:18.878Z,57.40
2023-05-19T22:19:46.491Z,57.84
2023-05-19T22:22:14.849Z,57.69
2023-05-19T22:24:42.861Z,57.89
2023-05-19T22:27:10.746Z,58.11
2023-05-19T22:29:38.968Z,58.30
2023-05-19T22:32:12.059Z,58.42
2023-05-19T22:34:41.063Z,58.44
2023-05-19T22:37:08.927Z,59.20
2023-05-19T22:39:36.901Z,59.85
2023-05-19T22:42:05.435Z,60.15
2023-05-19T22:44:33.226Z,60.96
2023-05-19T22:47:00.707Z,60.86
2023-05-19T22:49:29.924Z,61.27
2023-05-19T22:51:57.761Z,62.03
2023-05-19T22:54:25.384Z,61.93
2023-05-19T22:56:53.078Z,62.16
2023-05-19T22:59:21.633Z,62.25
2023-05-19T23:01:49.193Z,62.38
2023-05-19T23:04:17.191Z,62.43
2023-05-19T23:06:45.298Z,62.58
2023-05-19T23:09:13.229Z,62.85
2023-05-19T23:11:40.814Z,63.60
2023-05-19T23:14:08.324Z,63.49
2023-05-19T23:16:35.825Z,63.82
2023-05-19T23:19:03.332Z,63.60
2023-05-19T23:21:32.532Z,64.21
2023-05-19T23:24:00.437Z,64.63
2023-05-19T23:26:27.995Z,65.22
2023-05-19T23:28:55.539Z,66.02
2023-05-19T23:31:23.159Z,66.16
2023-05-19T23:33:51.038Z,65.78
2023-05-19T23:36:19.299Z,66.25
2023-05-19T23:38:46.779Z,66.12
2023-05-19T23:41:14.872Z,66.32
2023-05-19T23:43:42.713Z,66.90
2023-05-19T23:46:10.703Z,67.21
2023-05-19T23:48:38.522Z,67.32
2023-05-19T23:51:06.315Z,66.61
2023-05-19T23:53:33.775Z,66.71
2023-05-19T23:56:01.804Z,67.55
2023-05-19T23:58:29.673Z,67.36
